KCNY/CNY METAR and TAF weather

Enter ICAO airport designator
Station Type Date Time Source
KCNY METAR 2018/01/22 19:53 UTC NOAA

KCNY 221953Z AUTO VRB04KT 10SM CLR 02/M06 A3028 RMK AO2 SLP282 T00171061


Station Type Date Time Source
KCNY Decoded METAR 2018/01/22 19:53 UTC NOAA

MOAB CANYONLANDS FIELD, UT, United States (KCNY) 38-46N 109-45W 1390M
Jan 22, 2018 - 02:53 PM EST / 2018.01.22 1953 UTC
Wind: Variable at 5 MPH (4 KT):0
Visibility: 10 mile(s):0
Sky conditions: clear
Temperature: 35.1 F (1.7 C)
Dew Point: 21.0 F (-6.1 C)
Relative Humidity: 56%
Pressure (altimeter): 30.28 in. Hg (1025 hPa)
ob: KCNY 221953Z AUTO VRB04KT 10SM CLR 02/M06 A3028 RMK AO2 SLP282 T00171061
cycle: 20

Station Type Date Time Source
KCNY TAF 2018/01/22 18:36 UTC NOAA

TAF KCNY 221733Z 2218/2318 14005KT P6SM FEW250


Example: see airport list